createdAt,value
2023-05-25T00:03:03.949Z,10.50
2023-05-25T00:08:05.898Z,10.50
2023-05-25T00:13:07.628Z,10.30
2023-05-25T00:18:09.520Z,10.20
2023-05-25T00:23:11.277Z,10.20
2023-05-25T00:28:12.985Z,10.20
2023-05-25T00:33:15.561Z,10.10
2023-05-25T00:38:18.257Z,10.00
2023-05-25T00:43:19.948Z,10.00
2023-05-25T00:48:22.791Z,10.00
2023-05-25T00:53:24.586Z,10.10
2023-05-25T00:58:30.506Z,10.00
2023-05-25T01:03:38.163Z,10.10
2023-05-25T01:08:44.230Z,10.00
2023-05-25T01:13:47.763Z,10.10
2023-05-25T01:18:52.673Z,10.10
2023-05-25T01:24:03.603Z,10.00
2023-05-25T01:29:06.888Z,10.00
2023-05-25T01:34:09.312Z,9.90
2023-05-25T01:39:11.281Z,9.90
2023-05-25T01:44:13.075Z,9.80
2023-05-25T01:49:46.688Z,9.90
2023-05-25T01:54:53.542Z,9.90
2023-05-25T02:00:02.740Z,9.90
2023-05-25T02:05:05.093Z,9.90
2023-05-25T02:10:07.320Z,9.80
2023-05-25T02:15:09.388Z,9.80
2023-05-25T02:20:11.729Z,9.70
2023-05-25T02:25:13.794Z,9.70
2023-05-25T02:30:15.687Z,9.70
2023-05-25T02:35:17.583Z,9.70
2023-05-25T02:40:19.356Z,9.70
2023-05-25T02:45:21.073Z,9.70
2023-05-25T02:50:22.822Z,9.60
2023-05-25T02:55:26.119Z,9.50
2023-05-25T03:00:28.219Z,9.50
2023-05-25T03:05:30.048Z,9.60
2023-05-25T03:10:31.844Z,9.50
2023-05-25T03:15:33.558Z,9.50
2023-05-25T03:20:35.369Z,9.50
2023-05-25T03:25:37.090Z,9.50
2023-05-25T03:30:38.904Z,9.50
2023-05-25T03:35:40.797Z,9.50
2023-05-25T03:40:42.542Z,9.50
2023-05-25T03:45:44.605Z,9.50
2023-05-25T03:50:46.604Z,9.50
2023-05-25T03:55:51.981Z,9.60
2023-05-25T04:00:54.980Z,9.60
2023-05-25T04:05:58.171Z,9.60
2023-05-25T04:10:59.967Z,9.60
2023-05-25T04:16:01.789Z,9.70
2023-05-25T04:21:03.656Z,9.60
2023-05-25T04:26:06.062Z,9.70
2023-05-25T04:31:09.174Z,9.60
2023-05-25T04:36:11.040Z,9.60
2023-05-25T04:41:12.799Z,9.70
2023-05-25T04:46:16.969Z,9.70
2023-05-25T04:51:18.774Z,9.80
2023-05-25T04:56:22.236Z,9.90
2023-05-25T05:01:24.105Z,9.90
2023-05-25T05:06:26.049Z,10.10
2023-05-25T05:11:28.343Z,10.20
2023-05-25T05:16:34.204Z,10.30
2023-05-25T05:21:36.239Z,10.30
2023-05-25T05:26:55.622Z,10.40
2023-05-25T05:31:58.979Z,10.60
2023-05-25T05:37:00.868Z,10.90
2023-05-25T05:42:02.725Z,11.20
2023-05-25T05:47:04.742Z,11.70
2023-05-25T05:52:08.712Z,12.00
2023-05-25T05:57:10.533Z,12.30
2023-05-25T06:02:12.364Z,12.10
2023-05-25T06:07:14.100Z,12.40
2023-05-25T06:12:16.029Z,12.70
2023-05-25T06:17:17.790Z,12.70
2023-05-25T06:22:19.568Z,12.70
2023-05-25T06:27:23.573Z,12.80
2023-05-25T06:32:25.383Z,12.40
2023-05-25T06:37:27.889Z,12.30
2023-05-25T06:42:29.606Z,12.30
2023-05-25T06:47:31.564Z,12.20
2023-05-25T06:52:33.603Z,12.20
2023-05-25T06:57:35.454Z,12.40
2023-05-25T07:02:37.361Z,12.70
2023-05-25T07:07:40.166Z,12.90
2023-05-25T07:12:41.907Z,12.80
2023-05-25T07:17:43.965Z,12.80
2023-05-25T07:22:47.445Z,12.90
2023-05-25T07:27:50.444Z,12.90
2023-05-25T07:32:52.293Z,13.00
2023-05-25T07:38:00.933Z,13.10
2023-05-25T07:43:02.776Z,13.20
2023-05-25T07:48:07.131Z,13.30
2023-05-25T07:53:08.919Z,13.60
2023-05-25T07:58:10.669Z,13.90
2023-05-25T08:03:13.893Z,14.40
2023-05-25T08:08:16.076Z,14.70
2023-05-25T08:13:17.854Z,15.00
2023-05-25T08:18:19.575Z,15.30
2023-05-25T08:23:22.002Z,15.10
2023-05-25T08:28:23.862Z,15.00
2023-05-25T08:33:26.236Z,14.80
2023-05-25T08:38:28.186Z,14.80
2023-05-25T08:43:30.780Z,14.80
2023-05-25T08:48:41.521Z,15.40
2023-05-25T08:53:44.698Z,15.40
2023-05-25T08:59:13.537Z,15.40
2023-05-25T09:04:19.781Z,15.70
2023-05-25T09:09:24.188Z,15.00
2023-05-25T09:14:31.497Z,15.40
2023-05-25T09:19:36.661Z,15.80
2023-05-25T09:24:41.237Z,16.10
2023-05-25T09:29:43.261Z,16.30
2023-05-25T09:34:46.079Z,16.30
2023-05-25T09:39:48.261Z,15.90
2023-05-25T09:44:50.145Z,16.50
2023-05-25T09:49:53.024Z,16.10
2023-05-25T09:54:56.235Z,16.00
2023-05-25T09:59:58.068Z,16.00
2023-05-25T10:05:00.106Z,16.30
2023-05-25T10:10:06.006Z,16.60
2023-05-25T10:15:09.333Z,16.90
2023-05-25T10:20:11.982Z,17.00
2023-05-25T10:25:32.765Z,18.10
2023-05-25T10:30:36.973Z,17.80
2023-05-25T10:35:56.074Z,17.00
2023-05-25T10:41:04.283Z,17.20
2023-05-25T10:46:07.083Z,17.40
2023-05-25T10:51:11.999Z,17.30
2023-05-25T10:56:14.322Z,17.90
2023-05-25T11:01:16.354Z,17.70
2023-05-25T11:06:21.531Z,17.70
2023-05-25T11:11:43.457Z,17.00
2023-05-25T11:17:18.339Z,17.60
2023-05-25T11:22:31.402Z,17.60
2023-05-25T11:27:45.052Z,17.50
2023-05-25T11:32:50.848Z,17.20
2023-05-25T11:37:53.687Z,17.40
2023-05-25T11:42:57.195Z,17.60
2023-05-25T11:47:59.287Z,17.60
2023-05-25T11:53:06.104Z,18.10
2023-05-25T11:58:07.898Z,18.40
2023-05-25T12:03:10.523Z,18.70
2023-05-25T12:08:12.486Z,18.50
2023-05-25T12:13:14.803Z,18.30
2023-05-25T12:18:16.750Z,18.20
2023-05-25T12:23:18.613Z,18.60
2023-05-25T12:28:20.413Z,19.20
2023-05-25T12:33:22.160Z,18.40
2023-05-25T12:38:23.986Z,18.40
2023-05-25T12:43:25.757Z,18.70
2023-05-25T12:48:27.904Z,19.40
2023-05-25T12:53:31.093Z,19.50
2023-05-25T12:58:32.985Z,19.30
2023-05-25T13:03:34.832Z,19.40
2023-05-25T13:08:39.074Z,19.20
2023-05-25T13:13:40.833Z,19.70
2023-05-25T13:18:42.544Z,20.50
2023-05-25T13:23:44.563Z,20.10
2023-05-25T13:28:46.695Z,20.10
2023-05-25T13:33:49.439Z,20.20
2023-05-25T13:38:51.467Z,21.10
2023-05-25T13:43:53.329Z,20.80
2023-05-25T13:48:55.081Z,21.10
2023-05-25T13:53:56.821Z,21.00
2023-05-25T13:58:58.615Z,21.00
2023-05-25T14:04:00.651Z,21.00
2023-05-25T14:09:02.857Z,21.20
2023-05-25T14:14:13.699Z,22.10
2023-05-25T14:19:21.403Z,21.10
2023-05-25T14:24:23.152Z,21.00
2023-05-25T14:29:26.017Z,22.10
2023-05-25T14:34:27.981Z,21.70
2023-05-25T14:39:31.100Z,22.00
2023-05-25T14:44:33.113Z,21.30
2023-05-25T14:49:35.019Z,22.20
2023-05-25T14:54:37.067Z,23.00
2023-05-25T14:59:39.253Z,22.50
2023-05-25T15:04:41.367Z,22.10
2023-05-25T15:09:43.249Z,21.10
2023-05-25T15:14:45.082Z,21.50
2023-05-25T15:19:46.824Z,21.70
2023-05-25T15:24:48.573Z,21.10
2023-05-25T15:29:50.612Z,21.10
2023-05-25T15:34:52.399Z,21.00
2023-05-25T15:39:54.174Z,21.50
2023-05-25T15:44:55.880Z,22.40
2023-05-25T15:49:57.646Z,22.50
2023-05-25T15:54:59.442Z,22.40
2023-05-25T16:00:01.160Z,22.80
2023-05-25T16:05:05.342Z,23.10
2023-05-25T16:10:07.675Z,23.00
2023-05-25T16:15:10.512Z,22.70
2023-05-25T16:20:12.612Z,22.70
2023-05-25T16:25:14.474Z,22.30
2023-05-25T16:30:16.404Z,22.40
2023-05-25T16:35:18.259Z,22.70
2023-05-25T16:40:21.170Z,22.20
2023-05-25T16:45:22.916Z,22.30
2023-05-25T16:50:24.749Z,22.50
2023-05-25T16:55:26.495Z,22.60
2023-05-25T17:00:28.177Z,22.00
2023-05-25T17:05:29.906Z,22.00
2023-05-25T17:10:31.651Z,22.10
2023-05-25T17:15:33.369Z,21.80
2023-05-25T17:20:35.311Z,22.50
2023-05-25T17:25:39.071Z,22.90
2023-05-25T17:30:40.830Z,21.90
2023-05-25T17:35:42.697Z,21.40
2023-05-25T17:40:44.672Z,21.40
2023-05-25T17:45:46.920Z,21.20
2023-05-25T17:50:48.892Z,20.30
2023-05-25T17:55:50.660Z,20.10
2023-05-25T18:00:52.495Z,19.90
2023-05-25T18:05:54.243Z,19.60
2023-05-25T18:10:56.090Z,19.40
2023-05-25T18:15:57.818Z,19.20
2023-05-25T18:21:00.004Z,19.00
2023-05-25T18:26:01.687Z,18.70
2023-05-25T18:31:03.451Z,18.60
2023-05-25T18:36:05.519Z,18.60
2023-05-25T18:41:07.392Z,18.40
2023-05-25T18:46:09.160Z,18.20
2023-05-25T18:51:11.089Z,18.00
2023-05-25T18:56:12.865Z,17.80
2023-05-25T19:01:14.626Z,17.60
2023-05-25T19:06:16.491Z,17.30
2023-05-25T19:11:22.252Z,17.20
2023-05-25T19:16:24.058Z,17.00
2023-05-25T19:21:26.801Z,16.80
2023-05-25T19:26:28.804Z,16.70
2023-05-25T19:31:31.528Z,16.60
2023-05-25T19:36:33.349Z,16.50
2023-05-25T19:41:38.579Z,16.20
2023-05-25T19:46:41.202Z,16.20
2023-05-25T19:51:42.965Z,16.00
2023-05-25T19:56:44.685Z,15.90
2023-05-25T20:01:46.506Z,15.80
2023-05-25T20:06:48.269Z,15.60
2023-05-25T20:11:49.985Z,15.60
2023-05-25T20:16:52.717Z,15.40
2023-05-25T20:21:54.829Z,15.40
2023-05-25T20:26:56.813Z,15.30
2023-05-25T20:31:58.841Z,15.20
2023-05-25T20:37:01.000Z,15.00
2023-05-25T20:42:02.728Z,14.90
2023-05-25T20:47:04.913Z,14.80
2023-05-25T20:52:06.726Z,14.80
2023-05-25T20:57:08.572Z,14.70
2023-05-25T21:02:10.556Z,14.60
2023-05-25T21:07:12.488Z,14.50
2023-05-25T21:12:14.298Z,14.40
2023-05-25T21:17:18.683Z,14.40
2023-05-25T21:22:20.603Z,14.30
2023-05-25T21:27:22.337Z,14.20
2023-05-25T21:32:24.118Z,14.20
2023-05-25T21:37:25.903Z,14.10
2023-05-25T21:42:27.616Z,14.10
2023-05-25T21:47:29.562Z,14.00
2023-05-25T21:52:31.290Z,13.90
2023-05-25T21:57:33.119Z,13.80
2023-05-25T22:02:34.858Z,13.80
2023-05-25T22:07:36.626Z,13.80
2023-05-25T22:12:38.373Z,13.60
2023-05-25T22:17:40.181Z,13.50
2023-05-25T22:22:42.276Z,13.50
2023-05-25T22:27:44.014Z,13.40
2023-05-25T22:32:45.894Z,13.40
2023-05-25T22:37:47.939Z,13.50
2023-05-25T22:42:50.351Z,13.40
2023-05-25T22:47:52.233Z,13.50
2023-05-25T22:52:54.052Z,13.50
2023-05-25T22:57:56.156Z,13.50
2023-05-25T23:02:57.987Z,13.40
2023-05-25T23:07:59.806Z,13.30
2023-05-25T23:13:02.297Z,13.20
2023-05-25T23:18:04.153Z,13.10
2023-05-25T23:23:05.907Z,13.10
2023-05-25T23:28:07.615Z,13.00
2023-05-25T23:33:10.255Z,13.00
2023-05-25T23:38:12.833Z,12.90
2023-05-25T23:43:14.669Z,12.90
2023-05-25T23:48:16.465Z,12.90
2023-05-25T23:53:18.255Z,12.90
2023-05-25T23:58:19.957Z,12.90
